sensor_id;sensor_type;location;lat;lon;timestamp;P1;durP1;ratioP1;P2;durP2;ratioP2
69979;SDS011;57318;56.232;43.944;2022-07-01T00:02:16;5.53;;;2.97;;
69979;SDS011;57318;56.232;43.944;2022-07-01T00:04:42;4.33;;;2.90;;
69979;SDS011;57318;56.232;43.944;2022-07-01T00:07:07;4.67;;;2.90;;
69979;SDS011;57318;56.232;43.944;2022-07-01T00:09:35;5.13;;;3.20;;
69979;SDS011;57318;56.232;43.944;2022-07-01T00:12:01;5.37;;;3.20;;
69979;SDS011;57318;56.232;43.944;2022-07-01T00:14:27;4.93;;;2.63;;
69979;SDS011;57318;56.232;43.944;2022-07-01T00:16:53;4.13;;;3.00;;
69979;SDS011;57318;56.232;43.944;2022-07-01T00:19:19;5.67;;;3.17;;
69979;SDS011;57318;56.232;43.944;2022-07-01T00:21:45;6.60;;;3.50;;
69979;SDS011;57318;56.232;43.944;2022-07-01T00:24:11;4.13;;;3.03;;
69979;SDS011;57318;56.232;43.944;2022-07-01T00:26:36;7.77;;;3.40;;
69979;SDS011;57318;56.232;43.944;2022-07-01T00:29:02;5.20;;;3.33;;
69979;SDS011;57318;56.232;43.944;2022-07-01T00:31:28;5.23;;;3.20;;
69979;SDS011;57318;56.232;43.944;2022-07-01T00:33:54;5.83;;;3.50;;
69979;SDS011;57318;56.232;43.944;2022-07-01T00:36:20;4.20;;;3.30;;
69979;SDS011;57318;56.232;43.944;2022-07-01T00:38:46;5.68;;;3.42;;
69979;SDS011;57318;56.232;43.944;2022-07-01T00:41:12;5.83;;;3.17;;
69979;SDS011;57318;56.232;43.944;2022-07-01T00:43:37;7.20;;;3.00;;
69979;SDS011;57318;56.232;43.944;2022-07-01T00:46:05;5.00;;;3.30;;
69979;SDS011;57318;56.232;43.944;2022-07-01T00:48:34;6.35;;;3.55;;
69979;SDS011;57318;56.232;43.944;2022-07-01T00:51:02;6.40;;;3.65;;
69979;SDS011;57318;56.232;43.944;2022-07-01T00:53:28;4.63;;;3.28;;
69979;SDS011;57318;56.232;43.944;2022-07-01T00:55:55;5.45;;;3.42;;
69979;SDS011;57318;56.232;43.944;2022-07-01T00:58:21;8.93;;;3.55;;
69979;SDS011;57318;56.232;43.944;2022-07-01T01:00:47;5.30;;;3.63;;
69979;SDS011;57318;56.232;43.944;2022-07-01T01:03:12;5.97;;;3.27;;
69979;SDS011;57318;56.232;43.944;2022-07-01T01:05:38;6.90;;;3.40;;
69979;SDS011;57318;56.232;43.944;2022-07-01T01:08:06;6.22;;;3.90;;
69979;SDS011;57318;56.232;43.944;2022-07-01T01:10:34;6.80;;;3.30;;
69979;SDS011;57318;56.232;43.944;2022-07-01T01:13:00;5.97;;;3.22;;
69979;SDS011;57318;56.232;43.944;2022-07-01T01:15:32;7.72;;;3.60;;
69979;SDS011;57318;56.232;43.944;2022-07-01T01:17:58;4.03;;;3.17;;
69979;SDS011;57318;56.232;43.944;2022-07-01T01:20:23;6.57;;;3.80;;
69979;SDS011;57318;56.232;43.944;2022-07-01T01:22:49;6.00;;;3.47;;
69979;SDS011;57318;56.232;43.944;2022-07-01T01:25:16;6.50;;;3.47;;
69979;SDS011;57318;56.232;43.944;2022-07-01T01:27:42;4.57;;;3.33;;
69979;SDS011;57318;56.232;43.944;2022-07-01T01:30:09;6.05;;;3.25;;
69979;SDS011;57318;56.232;43.944;2022-07-01T01:32:39;4.28;;;3.00;;
69979;SDS011;57318;56.232;43.944;2022-07-01T01:37:32;5.03;;;3.30;;
69979;SDS011;57318;56.232;43.944;2022-07-01T01:39:58;5.13;;;3.53;;
69979;SDS011;57318;56.232;43.944;2022-07-01T01:42:24;5.00;;;3.53;;
69979;SDS011;57318;56.232;43.944;2022-07-01T01:44:50;5.37;;;3.80;;
69979;SDS011;57318;56.232;43.944;2022-07-01T01:47:15;6.17;;;3.33;;
69979;SDS011;57318;56.232;43.944;2022-07-01T01:49:41;6.27;;;3.60;;
69979;SDS011;57318;56.232;43.944;2022-07-01T01:52:07;8.73;;;3.43;;
69979;SDS011;57318;56.232;43.944;2022-07-01T01:54:33;7.47;;;3.60;;
69979;SDS011;57318;56.232;43.944;2022-07-01T01:57:02;13.38;;;4.10;;
69979;SDS011;57318;56.232;43.944;2022-07-01T01:59:28;4.45;;;3.40;;
69979;SDS011;57318;56.232;43.944;2022-07-01T02:01:54;8.20;;;3.70;;
69979;SDS011;57318;56.232;43.944;2022-07-01T02:04:20;5.97;;;3.97;;
69979;SDS011;57318;56.232;43.944;2022-07-01T02:06:49;6.30;;;3.63;;
69979;SDS011;57318;56.232;43.944;2022-07-01T02:09:15;7.82;;;3.45;;
69979;SDS011;57318;56.232;43.944;2022-07-01T02:11:41;5.03;;;3.47;;
69979;SDS011;57318;56.232;43.944;2022-07-01T02:14:07;6.07;;;3.63;;
69979;SDS011;57318;56.232;43.944;2022-07-01T02:18:59;7.00;;;3.75;;
69979;SDS011;57318;56.232;43.944;2022-07-01T02:21:25;9.23;;;3.97;;
69979;SDS011;57318;56.232;43.944;2022-07-01T02:23:51;4.03;;;3.27;;
69979;SDS011;57318;56.232;43.944;2022-07-01T02:26:20;4.43;;;3.45;;
69979;SDS011;57318;56.232;43.944;2022-07-01T02:28:46;4.97;;;3.63;;
69979;SDS011;57318;56.232;43.944;2022-07-01T02:31:11;5.65;;;3.85;;
69979;SDS011;57318;56.232;43.944;2022-07-01T02:33:37;4.67;;;3.43;;
69979;SDS011;57318;56.232;43.944;2022-07-01T02:36:03;5.33;;;2.93;;
69979;SDS011;57318;56.232;43.944;2022-07-01T02:38:29;4.50;;;3.30;;
69979;SDS011;57318;56.232;43.944;2022-07-01T02:40:55;4.73;;;3.43;;
69979;SDS011;57318;56.232;43.944;2022-07-01T02:43:21;5.87;;;3.27;;
69979;SDS011;57318;56.232;43.944;2022-07-01T02:45:46;4.27;;;3.43;;
69979;SDS011;57318;56.232;43.944;2022-07-01T02:48:12;5.43;;;3.40;;
69979;SDS011;57318;56.232;43.944;2022-07-01T02:50:38;3.33;;;2.57;;
69979;SDS011;57318;56.232;43.944;2022-07-01T02:53:07;4.47;;;2.90;;
69979;SDS011;57318;56.232;43.944;2022-07-01T02:55:32;5.13;;;3.40;;
69979;SDS011;57318;56.232;43.944;2022-07-01T02:57:58;4.30;;;3.20;;
69979;SDS011;57318;56.232;43.944;2022-07-01T03:00:24;3.93;;;2.70;;
69979;SDS011;57318;56.232;43.944;2022-07-01T03:02:50;4.72;;;2.92;;
69979;SDS011;57318;56.232;43.944;2022-07-01T03:05:16;7.05;;;2.88;;
69979;SDS011;57318;56.232;43.944;2022-07-01T03:07:43;6.13;;;2.95;;
69979;SDS011;57318;56.232;43.944;2022-07-01T03:10:09;5.00;;;2.88;;
69979;SDS011;57318;56.232;43.944;2022-07-01T03:12:36;3.80;;;3.10;;
69979;SDS011;57318;56.232;43.944;2022-07-01T03:15:09;5.40;;;3.17;;
69979;SDS011;57318;56.232;43.944;2022-07-01T03:17:38;8.05;;;3.35;;
69979;SDS011;57318;56.232;43.944;2022-07-01T03:20:06;5.03;;;2.80;;
69979;SDS011;57318;56.232;43.944;2022-07-01T03:22:34;4.07;;;2.90;;
69979;SDS011;57318;56.232;43.944;2022-07-01T03:25:00;5.28;;;3.38;;
69979;SDS011;57318;56.232;43.944;2022-07-01T03:27:29;4.90;;;2.92;;
69979;SDS011;57318;56.232;43.944;2022-07-01T03:29:55;5.50;;;2.75;;
69979;SDS011;57318;56.232;43.944;2022-07-01T03:32:21;3.50;;;2.78;;
69979;SDS011;57318;56.232;43.944;2022-07-01T03:34:48;3.73;;;2.97;;
69979;SDS011;57318;56.232;43.944;2022-07-01T03:37:16;5.60;;;2.90;;
69979;SDS011;57318;56.232;43.944;2022-07-01T03:39:43;4.47;;;2.85;;
69979;SDS011;57318;56.232;43.944;2022-07-01T03:44:35;3.78;;;2.65;;
69979;SDS011;57318;56.232;43.944;2022-07-01T03:47:02;5.57;;;2.83;;
69979;SDS011;57318;56.232;43.944;2022-07-01T03:49:29;5.18;;;2.50;;
69979;SDS011;57318;56.232;43.944;2022-07-01T03:51:54;3.93;;;2.90;;
69979;SDS011;57318;56.232;43.944;2022-07-01T03:54:20;5.73;;;2.70;;
69979;SDS011;57318;56.232;43.944;2022-07-01T03:56:59;4.75;;;3.20;;
69979;SDS011;57318;56.232;43.944;2022-07-01T03:59:26;5.30;;;2.70;;
69979;SDS011;57318;56.232;43.944;2022-07-01T04:04:19;3.67;;;2.22;;
69979;SDS011;57318;56.232;43.944;2022-07-01T04:06:46;4.68;;;2.90;;
69979;SDS011;57318;56.232;43.944;2022-07-01T04:09:12;8.77;;;2.70;;
69979;SDS011;57318;56.232;43.944;2022-07-01T04:11:40;8.00;;;3.00;;
69979;SDS011;57318;56.232;43.944;2022-07-01T04:14:08;4.65;;;2.80;;
69979;SDS011;57318;56.232;43.944;2022-07-01T04:16:35;4.55;;;2.90;;
69979;SDS011;57318;56.232;43.944;2022-07-01T04:19:01;3.90;;;2.83;;
69979;SDS011;57318;56.232;43.944;2022-07-01T04:21:27;3.77;;;3.20;;
69979;SDS011;57318;56.232;43.944;2022-07-01T04:24:12;3.67;;;3.05;;
69979;SDS011;57318;56.232;43.944;2022-07-01T04:26:41;4.28;;;2.88;;
69979;SDS011;57318;56.232;43.944;2022-07-01T04:29:08;4.10;;;2.60;;
69979;SDS011;57318;56.232;43.944;2022-07-01T04:31:35;3.65;;;2.55;;
69979;SDS011;57318;56.232;43.944;2022-07-01T04:34:06;3.40;;;2.83;;
69979;SDS011;57318;56.232;43.944;2022-07-01T04:36:32;8.98;;;3.00;;
69979;SDS011;57318;56.232;43.944;2022-07-01T04:38:59;4.13;;;2.95;;
69979;SDS011;57318;56.232;43.944;2022-07-01T04:41:25;7.32;;;2.80;;
69979;SDS011;57318;56.232;43.944;2022-07-01T04:44:10;3.50;;;2.30;;
69979;SDS011;57318;56.232;43.944;2022-07-01T04:46:36;3.42;;;2.30;;
69979;SDS011;57318;56.232;43.944;2022-07-01T04:49:01;3.30;;;2.33;;
69979;SDS011;57318;56.232;43.944;2022-07-01T04:51:28;4.10;;;2.60;;
69979;SDS011;57318;56.232;43.944;2022-07-01T04:53:54;5.25;;;2.88;;
69979;SDS011;57318;56.232;43.944;2022-07-01T04:56:20;4.53;;;2.53;;
69979;SDS011;57318;56.232;43.944;2022-07-01T04:58:46;3.53;;;2.67;;
69979;SDS011;57318;56.232;43.944;2022-07-01T05:01:12;4.05;;;2.63;;
69979;SDS011;57318;56.232;43.944;2022-07-01T05:03:38;5.18;;;2.78;;
69979;SDS011;57318;56.232;43.944;2022-07-01T05:06:04;5.23;;;2.70;;
69979;SDS011;57318;56.232;43.944;2022-07-01T05:08:30;3.00;;;2.45;;
69979;SDS011;57318;56.232;43.944;2022-07-01T05:10:56;9.10;;;2.37;;
69979;SDS011;57318;56.232;43.944;2022-07-01T05:13:22;5.70;;;2.40;;
69979;SDS011;57318;56.232;43.944;2022-07-01T05:15:48;2.75;;;2.47;;
69979;SDS011;57318;56.232;43.944;2022-07-01T05:18:15;3.67;;;2.13;;
69979;SDS011;57318;56.232;43.944;2022-07-01T05:20:59;2.75;;;2.33;;
69979;SDS011;57318;56.232;43.944;2022-07-01T05:23:43;4.32;;;2.40;;
69979;SDS011;57318;56.232;43.944;2022-07-01T05:26:09;4.87;;;2.27;;
69979;SDS011;57318;56.232;43.944;2022-07-01T05:28:40;3.72;;;2.28;;
69979;SDS011;57318;56.232;43.944;2022-07-01T05:31:07;3.72;;;2.40;;
69979;SDS011;57318;56.232;43.944;2022-07-01T05:33:32;2.80;;;2.37;;
69979;SDS011;57318;56.232;43.944;2022-07-01T05:35:58;5.30;;;2.20;;
69979;SDS011;57318;56.232;43.944;2022-07-01T05:38:24;3.37;;;2.30;;
69979;SDS011;57318;56.232;43.944;2022-07-01T05:40:49;2.53;;;2.03;;
69979;SDS011;57318;56.232;43.944;2022-07-01T05:43:17;3.72;;;2.50;;
69979;SDS011;57318;56.232;43.944;2022-07-01T05:45:43;3.70;;;2.70;;
69979;SDS011;57318;56.232;43.944;2022-07-01T05:48:09;2.93;;;2.40;;
69979;SDS011;57318;56.232;43.944;2022-07-01T05:50:34;4.47;;;2.40;;
69979;SDS011;57318;56.232;43.944;2022-07-01T05:53:00;6.87;;;2.73;;
69979;SDS011;57318;56.232;43.944;2022-07-01T05:55:26;6.37;;;2.63;;
69979;SDS011;57318;56.232;43.944;2022-07-01T05:57:52;7.90;;;2.40;;
69979;SDS011;57318;56.232;43.944;2022-07-01T06:00:18;10.80;;;2.45;;
69979;SDS011;57318;56.232;43.944;2022-07-01T06:02:44;2.55;;;2.08;;
69979;SDS011;57318;56.232;43.944;2022-07-01T06:05:09;2.73;;;2.17;;
69979;SDS011;57318;56.232;43.944;2022-07-01T06:07:38;3.35;;;2.47;;
69979;SDS011;57318;56.232;43.944;2022-07-01T06:10:04;2.50;;;2.30;;
69979;SDS011;57318;56.232;43.944;2022-07-01T06:12:30;4.88;;;2.65;;
69979;SDS011;57318;56.232;43.944;2022-07-01T06:14:56;4.83;;;2.37;;
69979;SDS011;57318;56.232;43.944;2022-07-01T06:17:22;4.23;;;2.47;;
69979;SDS011;57318;56.232;43.944;2022-07-01T06:19:47;6.57;;;2.77;;
69979;SDS011;57318;56.232;43.944;2022-07-01T06:22:13;4.23;;;2.67;;
69979;SDS011;57318;56.232;43.944;2022-07-01T06:24:42;4.18;;;2.67;;
69979;SDS011;57318;56.232;43.944;2022-07-01T06:27:07;4.03;;;2.40;;
69979;SDS011;57318;56.232;43.944;2022-07-01T06:29:34;3.60;;;2.20;;
69979;SDS011;57318;56.232;43.944;2022-07-01T06:32:00;8.05;;;2.33;;
69979;SDS011;57318;56.232;43.944;2022-07-01T06:34:25;3.70;;;2.30;;
69979;SDS011;57318;56.232;43.944;2022-07-01T06:36:51;8.63;;;2.30;;
69979;SDS011;57318;56.232;43.944;2022-07-01T06:39:17;4.10;;;2.20;;
69979;SDS011;57318;56.232;43.944;2022-07-01T06:41:43;4.60;;;2.40;;
69979;SDS011;57318;56.232;43.944;2022-07-01T06:44:09;3.60;;;2.50;;
69979;SDS011;57318;56.232;43.944;2022-07-01T06:46:38;4.82;;;2.80;;
69979;SDS011;57318;56.232;43.944;2022-07-01T06:49:04;4.70;;;1.98;;
69979;SDS011;57318;56.232;43.944;2022-07-01T06:51:30;2.47;;;2.13;;
69979;SDS011;57318;56.232;43.944;2022-07-01T06:53:55;4.10;;;2.00;;
69979;SDS011;57318;56.232;43.944;2022-07-01T06:56:21;4.70;;;2.80;;
69979;SDS011;57318;56.232;43.944;2022-07-01T06:58:47;7.77;;;2.33;;
69979;SDS011;57318;56.232;43.944;2022-07-01T07:01:13;5.00;;;2.27;;
69979;SDS011;57318;56.232;43.944;2022-07-01T07:03:38;3.60;;;1.73;;
69979;SDS011;57318;56.232;43.944;2022-07-01T07:06:04;2.20;;;1.60;;
69979;SDS011;57318;56.232;43.944;2022-07-01T07:08:30;4.17;;;1.63;;
69979;SDS011;57318;56.232;43.944;2022-07-01T07:10:57;2.38;;;1.52;;
69979;SDS011;57318;56.232;43.944;2022-07-01T07:13:24;2.17;;;1.40;;
69979;SDS011;57318;56.232;43.944;2022-07-01T07:15:51;4.63;;;1.40;;
69979;SDS011;57318;56.232;43.944;2022-07-01T07:18:17;6.07;;;2.22;;
69979;SDS011;57318;56.232;43.944;2022-07-01T07:20:43;2.33;;;1.50;;
69979;SDS011;57318;56.232;43.944;2022-07-01T07:23:09;3.17;;;1.53;;
69979;SDS011;57318;56.232;43.944;2022-07-01T07:25:35;2.53;;;1.52;;
69979;SDS011;57318;56.232;43.944;2022-07-01T07:28:01;4.97;;;1.70;;
69979;SDS011;57318;56.232;43.944;2022-07-01T07:30:27;6.30;;;1.77;;
69979;SDS011;57318;56.232;43.944;2022-07-01T07:32:52;5.73;;;1.70;;
69979;SDS011;57318;56.232;43.944;2022-07-01T07:35:18;2.13;;;1.60;;
69979;SDS011;57318;56.232;43.944;2022-07-01T07:37:44;4.40;;;1.90;;
69979;SDS011;57318;56.232;43.944;2022-07-01T07:40:11;2.38;;;1.75;;
69979;SDS011;57318;56.232;43.944;2022-07-01T07:42:38;2.17;;;1.80;;
69979;SDS011;57318;56.232;43.944;2022-07-01T07:45:05;3.17;;;2.05;;
69979;SDS011;57318;56.232;43.944;2022-07-01T07:47:35;2.80;;;1.83;;
69979;SDS011;57318;56.232;43.944;2022-07-01T07:50:01;2.83;;;1.55;;
69979;SDS011;57318;56.232;43.944;2022-07-01T07:52:29;8.50;;;2.00;;
69979;SDS011;57318;56.232;43.944;2022-07-01T07:54:55;7.28;;;1.77;;
69979;SDS011;57318;56.232;43.944;2022-07-01T07:57:21;3.33;;;2.20;;
69979;SDS011;57318;56.232;43.944;2022-07-01T07:59:47;4.53;;;1.38;;
69979;SDS011;57318;56.232;43.944;2022-07-01T08:02:13;2.15;;;1.85;;
69979;SDS011;57318;56.232;43.944;2022-07-01T08:04:39;4.03;;;1.70;;
69979;SDS011;57318;56.232;43.944;2022-07-01T08:07:05;9.87;;;1.90;;
69979;SDS011;57318;56.232;43.944;2022-07-01T08:09:31;7.88;;;2.67;;
69979;SDS011;57318;56.232;43.944;2022-07-01T08:12:00;5.30;;;1.90;;
69979;SDS011;57318;56.232;43.944;2022-07-01T08:14:28;5.00;;;1.90;;
69979;SDS011;57318;56.232;43.944;2022-07-01T08:16:54;4.93;;;2.30;;
69979;SDS011;57318;56.232;43.944;2022-07-01T08:19:20;7.30;;;1.80;;
69979;SDS011;57318;56.232;43.944;2022-07-01T08:21:46;3.53;;;1.90;;
69979;SDS011;57318;56.232;43.944;2022-07-01T08:24:11;2.33;;;1.87;;
69979;SDS011;57318;56.232;43.944;2022-07-01T08:26:37;4.87;;;2.37;;
69979;SDS011;57318;56.232;43.944;2022-07-01T08:29:04;5.00;;;2.27;;
69979;SDS011;57318;56.232;43.944;2022-07-01T08:31:30;6.32;;;2.20;;
69979;SDS011;57318;56.232;43.944;2022-07-01T08:33:57;4.32;;;2.22;;
69979;SDS011;57318;56.232;43.944;2022-07-01T08:36:23;5.15;;;2.42;;
69979;SDS011;57318;56.232;43.944;2022-07-01T08:38:49;4.23;;;2.40;;
69979;SDS011;57318;56.232;43.944;2022-07-01T08:41:15;6.72;;;2.10;;
69979;SDS011;57318;56.232;43.944;2022-07-01T08:43:42;19.95;;;3.05;;
69979;SDS011;57318;56.232;43.944;2022-07-01T08:46:08;8.50;;;2.40;;
69979;SDS011;57318;56.232;43.944;2022-07-01T08:48:34;6.23;;;2.23;;
69979;SDS011;57318;56.232;43.944;2022-07-01T08:51:00;6.80;;;2.20;;
69979;SDS011;57318;56.232;43.944;2022-07-01T08:53:31;3.88;;;2.30;;
69979;SDS011;57318;56.232;43.944;2022-07-01T08:55:57;5.18;;;2.88;;
69979;SDS011;57318;56.232;43.944;2022-07-01T08:58:42;5.97;;;2.90;;
69979;SDS011;57318;56.232;43.944;2022-07-01T09:03:41;4.18;;;2.50;;
69979;SDS011;57318;56.232;43.944;2022-07-01T09:06:12;4.43;;;2.83;;
69979;SDS011;57318;56.232;43.944;2022-07-01T09:08:44;4.13;;;2.38;;
69979;SDS011;57318;56.232;43.944;2022-07-01T09:11:11;7.28;;;2.97;;
69979;SDS011;57318;56.232;43.944;2022-07-01T09:13:39;4.03;;;2.50;;
69979;SDS011;57318;56.232;43.944;2022-07-01T09:16:16;6.40;;;2.30;;
69979;SDS011;57318;56.232;43.944;2022-07-01T09:19:01;4.05;;;2.15;;
69979;SDS011;57318;56.232;43.944;2022-07-01T09:21:28;2.95;;;2.65;;
69979;SDS011;57318;56.232;43.944;2022-07-01T09:23:56;4.65;;;2.70;;
69979;SDS011;57318;56.232;43.944;2022-07-01T09:26:50;3.10;;;2.10;;
69979;SDS011;57318;56.232;43.944;2022-07-01T09:29:27;3.55;;;2.60;;
69979;SDS011;57318;56.232;43.944;2022-07-01T09:31:57;5.15;;;2.97;;
69979;SDS011;57318;56.232;43.944;2022-07-01T09:34:24;4.65;;;2.53;;
69979;SDS011;57318;56.232;43.944;2022-07-01T09:36:55;2.80;;;2.20;;
69979;SDS011;57318;56.232;43.944;2022-07-01T09:39:23;5.10;;;2.40;;
69979;SDS011;57318;56.232;43.944;2022-07-01T09:41:49;2.85;;;2.15;;
69979;SDS011;57318;56.232;43.944;2022-07-01T09:44:20;2.97;;;2.20;;
69979;SDS011;57318;56.232;43.944;2022-07-01T09:46:53;3.08;;;2.40;;
69979;SDS011;57318;56.232;43.944;2022-07-01T09:49:20;3.38;;;2.30;;
69979;SDS011;57318;56.232;43.944;2022-07-01T09:51:48;4.03;;;2.83;;
69979;SDS011;57318;56.232;43.944;2022-07-01T09:54:16;5.00;;;2.53;;
69979;SDS011;57318;56.232;43.944;2022-07-01T09:56:42;3.92;;;2.75;;
69979;SDS011;57318;56.232;43.944;2022-07-01T09:59:09;5.55;;;2.80;;
69979;SDS011;57318;56.232;43.944;2022-07-01T10:04:03;6.82;;;2.40;;
69979;SDS011;57318;56.232;43.944;2022-07-01T10:12:00;3.40;;;2.40;;
69979;SDS011;57318;56.232;43.944;2022-07-01T10:14:44;4.88;;;2.60;;
69979;SDS011;57318;56.232;43.944;2022-07-01T10:17:25;2.58;;;2.20;;
69979;SDS011;57318;56.232;43.944;2022-07-01T10:19:56;4.43;;;2.38;;
69979;SDS011;57318;56.232;43.944;2022-07-01T10:22:31;6.30;;;2.70;;
69979;SDS011;57318;56.232;43.944;2022-07-01T10:28:23;8.23;;;2.58;;
69979;SDS011;57318;56.232;43.944;2022-07-01T10:31:18;5.13;;;2.45;;
69979;SDS011;57318;56.232;43.944;2022-07-01T10:33:48;5.18;;;2.28;;
69979;SDS011;57318;56.232;43.944;2022-07-01T10:44:02;3.08;;;2.22;;
69979;SDS011;57318;56.232;43.944;2022-07-01T10:46:40;3.03;;;2.25;;
69979;SDS011;57318;56.232;43.944;2022-07-01T10:52:17;9.60;;;2.20;;
69979;SDS011;57318;56.232;43.944;2022-07-01T10:54:46;2.70;;;2.10;;
69979;SDS011;57318;56.232;43.944;2022-07-01T10:57:29;3.42;;;2.72;;
69979;SDS011;57318;56.232;43.944;2022-07-01T11:02:27;3.92;;;2.70;;
69979;SDS011;57318;56.232;43.944;2022-07-01T11:04:56;4.40;;;2.38;;
69979;SDS011;57318;56.232;43.944;2022-07-01T11:07:26;5.90;;;2.83;;
69979;SDS011;57318;56.232;43.944;2022-07-01T11:09:54;4.10;;;2.50;;
69979;SDS011;57318;56.232;43.944;2022-07-01T11:14:51;4.45;;;2.47;;
69979;SDS011;57318;56.232;43.944;2022-07-01T11:17:20;4.93;;;2.80;;
69979;SDS011;57318;56.232;43.944;2022-07-01T11:19:50;4.78;;;2.63;;
69979;SDS011;57318;56.232;43.944;2022-07-01T11:22:23;2.67;;;2.10;;
69979;SDS011;57318;56.232;43.944;2022-07-01T11:24:52;8.20;;;2.72;;
69979;SDS011;57318;56.232;43.944;2022-07-01T11:27:19;3.30;;;2.58;;
69979;SDS011;57318;56.232;43.944;2022-07-01T11:29:50;5.68;;;2.85;;
69979;SDS011;57318;56.232;43.944;2022-07-01T11:32:28;9.30;;;2.65;;
69979;SDS011;57318;56.232;43.944;2022-07-01T11:34:54;3.33;;;2.22;;
69979;SDS011;57318;56.232;43.944;2022-07-01T11:40:07;5.72;;;2.45;;
69979;SDS011;57318;56.232;43.944;2022-07-01T11:42:36;5.03;;;2.10;;
69979;SDS011;57318;56.232;43.944;2022-07-01T11:45:02;13.57;;;2.85;;
69979;SDS011;57318;56.232;43.944;2022-07-01T11:47:29;5.82;;;2.17;;
69979;SDS011;57318;56.232;43.944;2022-07-01T11:49:55;2.10;;;1.95;;
69979;SDS011;57318;56.232;43.944;2022-07-01T11:52:22;3.47;;;2.20;;
69979;SDS011;57318;56.232;43.944;2022-07-01T11:54:50;6.47;;;2.15;;
69979;SDS011;57318;56.232;43.944;2022-07-01T11:59:45;5.93;;;1.95;;
69979;SDS011;57318;56.232;43.944;2022-07-01T12:02:14;5.00;;;1.70;;
69979;SDS011;57318;56.232;43.944;2022-07-01T12:04:41;5.32;;;1.80;;
69979;SDS011;57318;56.232;43.944;2022-07-01T12:07:08;6.25;;;2.13;;
69979;SDS011;57318;56.232;43.944;2022-07-01T12:09:36;5.13;;;1.75;;
69979;SDS011;57318;56.232;43.944;2022-07-01T12:12:03;7.97;;;2.00;;
69979;SDS011;57318;56.232;43.944;2022-07-01T12:14:34;9.50;;;2.28;;
69979;SDS011;57318;56.232;43.944;2022-07-01T12:17:04;6.13;;;2.05;;
69979;SDS011;57318;56.232;43.944;2022-07-01T12:22:10;3.53;;;2.17;;
69979;SDS011;57318;56.232;43.944;2022-07-01T12:24:37;3.47;;;2.28;;
69979;SDS011;57318;56.232;43.944;2022-07-01T12:27:04;3.05;;;2.25;;
69979;SDS011;57318;56.232;43.944;2022-07-01T12:32:15;2.30;;;1.90;;
69979;SDS011;57318;56.232;43.944;2022-07-01T12:34:49;5.47;;;2.28;;
69979;SDS011;57318;56.232;43.944;2022-07-01T12:37:25;3.00;;;2.05;;
69979;SDS011;57318;56.232;43.944;2022-07-01T12:39:51;5.93;;;2.20;;
69979;SDS011;57318;56.232;43.944;2022-07-01T12:42:22;6.82;;;2.38;;
69979;SDS011;57318;56.232;43.944;2022-07-01T12:44:49;6.13;;;2.38;;
69979;SDS011;57318;56.232;43.944;2022-07-01T12:47:38;6.07;;;2.22;;
69979;SDS011;57318;56.232;43.944;2022-07-01T12:50:16;2.65;;;2.00;;
69979;SDS011;57318;56.232;43.944;2022-07-01T12:55:34;9.82;;;2.35;;
69979;SDS011;57318;56.232;43.944;2022-07-01T12:58:02;4.75;;;2.13;;
69979;SDS011;57318;56.232;43.944;2022-07-01T13:00:30;15.25;;;2.10;;
69979;SDS011;57318;56.232;43.944;2022-07-01T13:02:58;3.65;;;2.00;;
69979;SDS011;57318;56.232;43.944;2022-07-01T13:05:25;4.65;;;1.95;;
69979;SDS011;57318;56.232;43.944;2022-07-01T13:07:52;3.85;;;2.03;;
69979;SDS011;57318;56.232;43.944;2022-07-01T13:10:18;5.80;;;2.25;;
69979;SDS011;57318;56.232;43.944;2022-07-01T13:12:45;2.97;;;2.30;;
69979;SDS011;57318;56.232;43.944;2022-07-01T13:15:13;3.95;;;2.28;;
69979;SDS011;57318;56.232;43.944;2022-07-01T13:17:40;4.13;;;2.08;;
69979;SDS011;57318;56.232;43.944;2022-07-01T13:20:06;5.68;;;2.20;;
69979;SDS011;57318;56.232;43.944;2022-07-01T13:22:34;3.28;;;2.35;;
69979;SDS011;57318;56.232;43.944;2022-07-01T13:25:00;3.63;;;2.15;;
69979;SDS011;57318;56.232;43.944;2022-07-01T13:27:30;2.92;;;2.05;;
69979;SDS011;57318;56.232;43.944;2022-07-01T13:29:56;4.10;;;2.15;;
69979;SDS011;57318;56.232;43.944;2022-07-01T13:32:22;2.17;;;1.90;;
69979;SDS011;57318;56.232;43.944;2022-07-01T13:34:48;2.80;;;2.13;;
69979;SDS011;57318;56.232;43.944;2022-07-01T13:37:15;2.15;;;1.95;;
69979;SDS011;57318;56.232;43.944;2022-07-01T13:39:41;2.83;;;2.08;;
69979;SDS011;57318;56.232;43.944;2022-07-01T13:42:07;3.95;;;2.20;;
69979;SDS011;57318;56.232;43.944;2022-07-01T13:44:34;7.57;;;2.30;;
69979;SDS011;57318;56.232;43.944;2022-07-01T13:49:27;4.13;;;2.05;;
69979;SDS011;57318;56.232;43.944;2022-07-01T13:51:53;6.47;;;3.50;;
69979;SDS011;57318;56.232;43.944;2022-07-01T13:54:19;5.05;;;2.28;;
69979;SDS011;57318;56.232;43.944;2022-07-01T13:56:45;4.10;;;2.13;;
69979;SDS011;57318;56.232;43.944;2022-07-01T13:59:11;3.88;;;2.13;;
69979;SDS011;57318;56.232;43.944;2022-07-01T14:04:04;3.83;;;2.03;;
69979;SDS011;57318;56.232;43.944;2022-07-01T14:06:30;4.47;;;2.05;;
69979;SDS011;57318;56.232;43.944;2022-07-01T14:08:56;6.40;;;2.00;;
69979;SDS011;57318;56.232;43.944;2022-07-01T14:11:22;3.58;;;1.85;;
69979;SDS011;57318;56.232;43.944;2022-07-01T14:13:52;4.25;;;2.42;;
69979;SDS011;57318;56.232;43.944;2022-07-01T14:16:18;6.97;;;2.55;;
69979;SDS011;57318;56.232;43.944;2022-07-01T14:18:44;5.80;;;2.25;;
69979;SDS011;57318;56.232;43.944;2022-07-01T14:21:10;2.33;;;2.13;;
69979;SDS011;57318;56.232;43.944;2022-07-01T14:23:35;4.22;;;2.45;;
69979;SDS011;57318;56.232;43.944;2022-07-01T14:26:02;3.13;;;2.10;;
69979;SDS011;57318;56.232;43.944;2022-07-01T14:28:28;2.95;;;2.30;;
69979;SDS011;57318;56.232;43.944;2022-07-01T14:30:54;5.57;;;2.63;;
69979;SDS011;57318;56.232;43.944;2022-07-01T14:33:20;3.85;;;2.55;;
69979;SDS011;57318;56.232;43.944;2022-07-01T14:35:47;4.00;;;2.55;;
69979;SDS011;57318;56.232;43.944;2022-07-01T14:38:15;5.25;;;3.03;;
69979;SDS011;57318;56.232;43.944;2022-07-01T14:40:42;8.02;;;2.60;;
69979;SDS011;57318;56.232;43.944;2022-07-01T14:43:08;4.07;;;2.70;;
69979;SDS011;57318;56.232;43.944;2022-07-01T14:45:34;4.28;;;2.67;;
69979;SDS011;57318;56.232;43.944;2022-07-01T14:48:00;7.70;;;2.88;;
69979;SDS011;57318;56.232;43.944;2022-07-01T14:50:26;3.72;;;2.38;;
69979;SDS011;57318;56.232;43.944;2022-07-01T14:52:51;6.07;;;2.72;;
69979;SDS011;57318;56.232;43.944;2022-07-01T14:55:17;8.27;;;2.88;;
69979;SDS011;57318;56.232;43.944;2022-07-01T14:57:43;3.88;;;2.20;;
69979;SDS011;57318;56.232;43.944;2022-07-01T15:00:09;5.00;;;2.42;;
69979;SDS011;57318;56.232;43.944;2022-07-01T15:02:37;7.05;;;2.60;;
69979;SDS011;57318;56.232;43.944;2022-07-01T15:05:03;5.25;;;2.50;;
69979;SDS011;57318;56.232;43.944;2022-07-01T15:07:30;4.28;;;2.40;;
69979;SDS011;57318;56.232;43.944;2022-07-01T15:09:56;3.72;;;2.42;;
69979;SDS011;57318;56.232;43.944;2022-07-01T15:12:25;4.43;;;2.58;;
69979;SDS011;57318;56.232;43.944;2022-07-01T15:14:51;3.58;;;2.72;;
69979;SDS011;57318;56.232;43.944;2022-07-01T15:17:16;3.55;;;2.67;;
69979;SDS011;57318;56.232;43.944;2022-07-01T15:19:42;3.88;;;2.70;;
69979;SDS011;57318;56.232;43.944;2022-07-01T15:22:08;5.03;;;2.50;;
69979;SDS011;57318;56.232;43.944;2022-07-01T15:27:01;3.63;;;2.60;;
69979;SDS011;57318;56.232;43.944;2022-07-01T15:29:28;3.63;;;2.70;;
69979;SDS011;57318;56.232;43.944;2022-07-01T15:31:54;5.13;;;2.80;;
69979;SDS011;57318;56.232;43.944;2022-07-01T15:34:20;3.65;;;2.58;;
69979;SDS011;57318;56.232;43.944;2022-07-01T15:36:47;3.83;;;2.80;;